Time;durP1;ratioP1;P1;durP2;ratioP2;P2;SDS_P1;SDS_P2;PMS_P1;PMS_P2;Temp;Humidity;BMP_temperature;BMP_pressure;BME280_temperature;BME280_humidity;BME280_pressure;Samples;Min_cycle;Max_cycle;Signal;HPM_P1;HPM_P2
2022/01/23 00:01:54;;;;;;;46.07;24.07;;;;;;;4.62;100.00;102981.22;5113825;28;20193;-75
2022/01/23 00:04:20;;;;;;;56.97;24.83;;;;;;;4.55;100.00;102980.22;5095735;28;20199;-75
2022/01/23 00:06:48;;;;;;;46.47;23.20;;;;;;;4.60;100.00;102983.78;5113854;28;20266;-74
2022/01/23 00:09:16;;;;;;;50.73;25.23;;;;;;;4.58;100.00;102977.69;5113861;28;20185;-75
2022/01/23 00:11:50;;;;;;;47.47;24.50;;;;;;;4.61;100.00;102985.53;5096271;28;20261;-75
2022/01/23 00:17:17;;;;;;;50.07;24.03;;;;;;;4.53;100.00;102970.66;5113778;28;20617;-75
2022/01/23 00:20:00;;;;;;;41.40;23.23;;;;;;;4.60;100.00;102973.41;5113635;28;20239;-75
2022/01/23 00:22:39;;;;;;;45.63;22.97;;;;;;;4.52;100.00;102972.38;5114017;28;20223;-75
2022/01/23 00:30:39;;;;;;;51.53;25.43;;;;;;;4.51;100.00;102973.22;5118174;28;20662;-75
2022/01/23 00:33:07;;;;;;;47.83;25.03;;;;;;;4.59;100.00;102970.78;5099563;28;20203;-74
2022/01/23 00:35:37;;;;;;;49.30;23.00;;;;;;;4.57;100.00;102963.00;5117798;28;20242;-75
2022/01/23 00:38:06;;;;;;;44.83;23.33;;;;;;;4.55;100.00;102964.66;5099460;28;20213;-75
2022/01/23 00:40:34;;;;;;;54.10;25.07;;;;;;;4.57;100.00;102969.88;5117711;28;20723;-75
2022/01/23 00:43:06;;;;;;;42.47;23.77;;;;;;;4.54;100.00;102969.81;5099424;28;20241;-75
2022/01/23 00:45:34;;;;;;;44.80;23.33;;;;;;;4.45;100.00;102967.91;5100378;28;20568;-75
2022/01/23 00:48:06;;;;;;;47.87;23.73;;;;;;;4.51;100.00;102968.03;5117504;28;20686;-75
2022/01/23 00:50:44;;;;;;;59.57;24.83;;;;;;;4.47;100.00;102978.31;5099217;28;20215;-75
2022/01/23 00:53:12;;;;;;;44.70;23.77;;;;;;;4.49;100.00;102981.81;5117805;28;20635;-75
2022/01/23 00:55:42;;;;;;;53.87;24.07;;;;;;;4.50;100.00;102992.25;5117732;28;20180;-75
2022/01/23 00:58:09;;;;;;;48.67;23.83;;;;;;;4.47;100.00;102988.69;5117352;28;20205;-76
2022/01/23 01:00:36;;;;;;;36.77;21.50;;;;;;;4.56;100.00;102992.34;5099138;28;20589;-75
2022/01/23 01:03:03;;;;;;;51.80;25.20;;;;;;;4.50;100.00;102992.25;5099928;28;20195;-75
2022/01/23 01:05:30;;;;;;;44.73;24.40;;;;;;;4.49;100.00;102992.19;5082438;28;20535;-75
2022/01/23 01:07:59;;;;;;;50.97;23.53;;;;;;;4.43;100.00;102974.81;5098908;28;20216;-75
2022/01/23 01:10:35;;;;;;;46.47;24.47;;;;;;;4.45;100.00;102978.28;5099091;28;20215;-75
2022/01/23 01:13:04;;;;;;;47.87;23.50;;;;;;;4.52;100.00;102990.53;5117988;28;20164;-75
2022/01/23 01:31:56;;;;;;;46.33;21.37;;;;;;;4.32;100.00;102953.81;5116739;28;20204;-74
2022/01/23 01:36:58;;;;;;;46.47;21.93;;;;;;;4.32;100.00;102953.81;5098182;28;20610;-75
2022/01/23 01:39:27;;;;;;;49.07;22.83;;;;;;;4.33;100.00;102946.91;5116341;28;20185;-75
2022/01/23 01:41:55;;;;;;;55.03;24.77;;;;;;;4.33;100.00;102940.00;5098177;28;20188;-75
2022/01/23 01:44:26;;;;;;;52.60;27.57;;;;;;;4.28;100.00;102938.16;5098505;28;20234;-75
2022/01/23 01:47:07;;;;;;;50.03;25.70;;;;;;;4.27;100.00;102923.44;5098122;28;20208;-75
2022/01/23 01:49:39;;;;;;;61.33;26.30;;;;;;;4.32;100.00;102933.06;5098467;28;20185;-75
2022/01/23 01:52:07;;;;;;;53.30;25.20;;;;;;;4.32;100.00;102929.59;5098589;28;20246;-75
2022/01/23 01:54:34;;;;;;;54.90;24.80;;;;;;;4.34;100.00;102930.50;5098048;28;20189;-75
2022/01/23 01:57:07;;;;;;;64.97;24.67;;;;;;;4.31;100.00;102939.09;5098616;28;20237;-75
2022/01/23 02:02:49;;;;;;;54.90;23.70;;;;;;;4.32;100.00;102955.53;5116488;28;20650;-75
2022/01/23 02:10:53;;;;;;;50.80;24.53;;;;;;;4.31;100.00;102969.34;5097686;28;20212;-75
2022/01/23 02:22:31;;;;;;;57.30;25.73;;;;;;;4.28;100.00;102956.31;5115600;28;20681;-75
2022/01/23 02:52:33;;;;;;;45.20;22.40;;;;;;;4.31;100.00;102959.84;5097131;28;20209;-75
2022/01/23 02:55:10;;;;;;;38.93;21.27;;;;;;;4.31;100.00;102970.22;5096905;28;20181;-75
2022/01/23 02:57:51;;;;;;;41.67;20.17;;;;;;;4.34;100.00;102966.81;5096811;28;20281;-75
2022/01/23 03:00:24;;;;;;;41.03;20.63;;;;;;;4.33;100.00;102963.34;5097663;28;20192;-75
2022/01/23 03:03:21;;;;;;;38.67;21.30;;;;;;;4.35;100.00;102958.19;5067506;28;20224;-75
2022/01/23 03:14:38;;;;;;;39.10;21.47;;;;;;;4.28;100.00;102958.91;5115070;28;20187;-75
2022/01/23 03:25:49;;;;;;;41.27;20.83;;;;;;;4.28;100.00;102972.75;5114874;28;20626;-75
2022/01/23 03:31:07;;;;;;;43.07;21.00;;;;;;;4.29;100.00;102969.31;5096167;28;20713;-75
2022/01/23 03:33:35;;;;;;;46.73;21.23;;;;;;;4.32;100.00;102971.09;5096972;28;20177;-75
2022/01/23 03:36:03;;;;;;;40.00;19.90;;;;;;;4.31;100.00;102978.00;5096123;28;20607;-75
2022/01/23 03:38:30;;;;;;;41.13;21.23;;;;;;;4.35;100.00;102979.81;5095949;28;20235;-75
2022/01/23 03:40:57;;;;;;;40.90;19.70;;;;;;;4.31;100.00;102980.59;5114853;28;20241;-75
2022/01/23 03:43:28;;;;;;;37.00;20.20;;;;;;;4.31;100.00;102988.38;5114242;28;20189;-75
2022/01/23 03:46:22;;;;;;;41.90;21.47;;;;;;;4.33;100.00;102984.09;5096258;28;20189;-75
2022/01/23 03:51:22;;;;;;;31.70;18.43;;;;;;;4.35;100.00;102985.00;5096076;28;20206;-75
2022/01/23 03:53:50;;;;;;;39.83;19.30;;;;;;;4.34;100.00;102983.25;5095788;28;20193;-75
2022/01/23 03:56:19;;;;;;;41.37;19.63;;;;;;;4.35;100.00;102979.81;5095830;28;20226;-75
2022/01/23 03:58:47;;;;;;;32.50;17.87;;;;;;;4.32;100.00;102982.34;5095988;28;20205;-75
2022/01/23 04:01:19;;;;;;;51.13;23.90;;;;;;;4.37;100.00;102987.63;5095478;28;20595;-75
2022/01/23 04:03:48;;;;;;;39.07;19.90;;;;;;;4.41;100.00;102989.44;5096519;28;20217;-75
2022/01/23 04:06:15;;;;;;;44.93;20.83;;;;;;;4.44;100.00;102997.28;5095633;28;20199;-75
2022/01/23 04:08:43;;;;;;;43.83;20.00;;;;;;;4.43;100.00;102992.97;5095521;28;20240;-75
2022/01/23 04:11:10;;;;;;;39.13;20.13;;;;;;;4.39;100.00;102997.19;5095504;28;20212;-75
2022/01/23 04:13:45;;;;;;;41.33;19.53;;;;;;;4.38;100.00;102991.97;5095621;28;20539;-75
2022/01/23 04:33:25;;;;;;;48.70;20.73;;;;;;;4.31;100.00;102984.91;5095303;28;20316;-75
2022/01/23 04:35:46;;;;;;;45.43;22.03;;;;;;;4.30;100.00;102980.56;5092544;28;20221;-75
2022/01/23 04:59:49;;;;;;;49.47;22.03;;;;;;;4.34;100.00;102984.97;5096008;28;20194;-76
2022/01/23 05:05:01;;;;;;;48.23;23.83;;;;;;;4.43;100.00;102987.78;5113927;28;20177;-75
2022/01/23 05:07:47;;;;;;;54.77;22.60;;;;;;;4.35;100.00;102990.19;5113787;28;20293;-74
2022/01/23 05:10:16;;;;;;;51.57;23.73;;;;;;;4.34;100.00;102992.75;5113877;28;20197;-74
2022/01/23 05:13:02;;;;;;;51.63;23.07;;;;;;;4.31;100.00;102995.28;5114673;28;20314;-75
2022/01/23 05:15:29;;;;;;;63.87;24.70;;;;;;;4.35;100.00;102994.50;5117136;28;20550;-75
2022/01/23 05:17:55;;;;;;;63.43;25.23;;;;;;;4.41;100.00;102994.63;5116999;28;20296;-75
2022/01/23 05:20:26;;;;;;;50.40;23.17;;;;;;;4.46;100.00;102989.53;5116838;28;20199;-75
2022/01/23 05:22:58;;;;;;;63.87;25.67;;;;;;;4.37;100.00;102992.81;5098686;28;20186;-75
2022/01/23 05:25:28;;;;;;;53.00;24.80;;;;;;;4.41;100.00;102986.84;5117209;28;20531;-75
2022/01/23 05:27:54;;;;;;;60.37;24.57;;;;;;;4.37;100.00;102990.22;5098581;28;20222;-75
2022/01/23 05:30:22;;;;;;;62.27;24.63;;;;;;;4.35;100.00;103002.28;5116822;28;20194;-75
2022/01/23 05:32:50;;;;;;;66.97;25.30;;;;;;;4.37;100.00;103008.38;5098438;28;20617;-75
2022/01/23 05:35:19;;;;;;;60.87;24.43;;;;;;;4.40;100.00;103008.44;5098554;28;20242;-76
2022/01/23 05:37:46;;;;;;;61.73;26.33;;;;;;;4.44;100.00;103010.28;5098349;28;20236;-75
2022/01/23 05:40:18;;;;;;;62.03;25.47;;;;;;;4.41;100.00;103011.06;5099269;28;20186;-75
2022/01/23 05:42:49;;;;;;;61.07;25.37;;;;;;;4.41;100.00;103015.38;5098619;28;20190;-75
2022/01/23 05:45:17;;;;;;;69.67;27.00;;;;;;;4.42;100.00;103004.16;5098569;28;20212;-75
2022/01/23 05:48:01;;;;;;;62.13;25.07;;;;;;;4.37;100.00;103005.78;5116708;28;20220;-75
2022/01/23 05:50:57;;;;;;;59.00;25.20;;;;;;;4.39;100.00;102996.31;5098411;28;20212;-75
2022/01/23 05:53:32;;;;;;;67.73;27.43;;;;;;;4.38;100.00;103000.63;5116695;28;20185;-75
2022/01/23 05:56:17;;;;;;;66.17;26.03;;;;;;;4.39;100.00;102997.19;5101021;28;20173;-75
2022/01/23 05:58:53;;;;;;;62.00;24.97;;;;;;;4.37;100.00;103009.25;5098083;28;20237;-75
2022/01/23 06:01:24;;;;;;;65.77;27.47;;;;;;;4.40;100.00;103009.31;5097991;28;20543;-75
2022/01/23 06:03:52;;;;;;;67.53;26.07;;;;;;;4.47;100.00;103006.84;5097903;28;20197;-75
2022/01/23 06:06:31;;;;;;;67.50;25.27;;;;;;;4.48;100.00;103000.81;5098021;28;20606;-75
2022/01/23 06:08:57;;;;;;;57.27;24.70;;;;;;;4.49;100.00;103003.44;5098860;28;20239;-75
2022/01/23 06:11:24;;;;;;;59.37;26.00;;;;;;;4.42;100.00;103007.63;5098524;28;20201;-75
2022/01/23 06:13:50;;;;;;;63.83;26.03;;;;;;;4.42;100.00;103020.59;5097776;28;20189;-76
2022/01/23 06:16:17;;;;;;;59.20;25.60;;;;;;;4.42;100.00;103018.00;5115949;28;20592;-75
2022/01/23 06:19:04;;;;;;;56.13;23.57;;;;;;;4.40;100.00;103017.09;5115705;28;20195;-75
2022/01/23 06:21:57;;;;;;;64.57;24.93;;;;;;;4.44;100.00;103015.47;5099578;28;20562;-75
2022/01/23 06:24:48;;;;;;;61.50;24.93;;;;;;;4.47;100.00;103020.69;5115337;28;20282;-75
2022/01/23 06:27:37;;;;;;;56.33;26.40;;;;;;;4.52;100.00;103013.88;5101974;28;20807;-75
2022/01/23 06:30:04;;;;;;;44.97;24.47;;;;;;;4.50;100.00;103015.59;5097380;28;20196;-76
2022/01/23 06:32:31;;;;;;;53.13;24.77;;;;;;;4.50;100.00;103020.78;5097244;28;20588;-76
2022/01/23 06:34:57;;;;;;;55.97;24.47;;;;;;;4.50;100.00;103019.88;5116169;28;20169;-75
2022/01/23 06:37:24;;;;;;;55.57;23.67;;;;;;;4.50;100.00;103025.97;5097165;28;20209;-74
2022/01/23 06:39:51;;;;;;;63.80;24.87;;;;;;;4.50;100.00;103018.19;5097197;28;20682;-74
2022/01/23 06:42:37;;;;;;;53.17;24.37;;;;;;;4.50;100.00;103018.19;5097379;28;20195;-74
2022/01/23 06:45:19;;;;;;;54.33;25.33;;;;;;;4.48;100.00;103025.03;5097073;28;20188;-75
2022/01/23 06:47:46;;;;;;;49.00;22.30;;;;;;;4.50;100.00;103032.84;5097176;28;20262;-74
2022/01/23 06:50:12;;;;;;;64.17;26.73;;;;;;;4.56;100.00;103022.59;5096997;28;20192;-74
2022/01/23 06:52:39;;;;;;;56.57;24.63;;;;;;;4.57;100.00;103022.66;5096937;28;20254;-74
2022/01/23 06:55:06;;;;;;;48.43;25.00;;;;;;;4.56;100.00;103020.88;5096894;28;20185;-74
2022/01/23 06:57:35;;;;;;;54.83;25.67;;;;;;;4.51;100.00;103022.53;5096669;28;20213;-74
2022/01/23 07:00:04;;;;;;;50.47;23.57;;;;;;;4.62;100.00;103027.91;5096810;28;20667;-74
2022/01/23 07:02:49;;;;;;;48.83;23.83;;;;;;;4.54;100.00;103024.28;5115243;28;20173;-74
2022/01/23 07:05:46;;;;;;;51.40;25.87;;;;;;;4.50;100.00;103019.88;5084762;28;20561;-74
2022/01/23 07:08:18;;;;;;;52.77;25.77;;;;;;;4.51;100.00;103029.44;5080569;28;20220;-74
2022/01/23 07:10:55;;;;;;;57.53;27.00;;;;;;;4.46;100.00;103029.31;5096600;28;20189;-75
2022/01/23 07:13:42;;;;;;;53.03;24.67;;;;;;;4.47;100.00;103028.47;5115052;28;20422;-75
2022/01/23 07:16:22;;;;;;;57.33;24.23;;;;;;;4.50;100.00;103051.00;5096532;28;20189;-75
2022/01/23 07:19:15;;;;;;;58.63;24.83;;;;;;;4.52;100.00;103050.22;5114799;28;20201;-75
2022/01/23 07:21:51;;;;;;;47.60;24.27;;;;;;;4.52;100.00;103054.53;5097025;28;20182;-75
2022/01/23 07:24:19;;;;;;;52.53;24.63;;;;;;;4.49;100.00;103057.03;5096521;28;20647;-75
2022/01/23 07:26:47;;;;;;;52.80;24.07;;;;;;;4.49;100.00;103059.63;5096224;28;20237;-75
2022/01/23 07:29:15;;;;;;;44.70;23.93;;;;;;;4.52;100.00;103070.97;5096205;28;20190;-75
2022/01/23 07:31:55;;;;;;;49.60;23.43;;;;;;;4.58;100.00;103075.41;5097193;28;20202;-75
2022/01/23 07:34:22;;;;;;;47.87;22.60;;;;;;;4.58;100.00;103071.09;5096206;28;20189;-75
2022/01/23 07:36:49;;;;;;;47.17;22.70;;;;;;;4.56;100.00;103072.75;5095495;28;20204;-75
2022/01/23 07:39:25;;;;;;;50.97;24.83;;;;;;;4.59;100.00;103078.03;5097246;28;20280;-75
2022/01/23 07:41:57;;;;;;;48.07;24.47;;;;;;;4.59;100.00;103067.66;5097140;28;20526;-75
2022/01/23 07:44:43;;;;;;;56.53;26.53;;;;;;;4.60;100.00;103068.53;5114166;28;20198;-75
2022/01/23 07:47:10;;;;;;;47.13;24.17;;;;;;;4.58;100.00;103072.81;5114413;28;20692;-75
2022/01/23 07:50:06;;;;;;;60.20;25.17;;;;;;;4.59;100.00;103074.56;5092299;28;20431;-75
2022/01/23 07:53:06;;;;;;;47.47;22.63;;;;;;;4.60;100.00;103077.19;5105449;28;20234;-75
2022/01/23 07:56:02;;;;;;;52.90;25.60;;;;;;;4.63;100.00;103077.25;5104665;28;20690;-75
2022/01/23 07:58:38;;;;;;;53.47;23.77;;;;;;;4.65;100.00;103083.34;5114539;28;20295;-75
2022/01/23 08:01:07;;;;;;;49.50;22.93;;;;;;;4.64;100.00;103081.63;5095741;28;20240;-75
2022/01/23 08:03:54;;;;;;;61.10;25.40;;;;;;;4.70;100.00;103086.03;5113855;28;20184;-75
2022/01/23 08:06:23;;;;;;;53.30;25.80;;;;;;;4.72;100.00;103078.31;5095665;28;20189;-74
2022/01/23 08:09:17;;;;;;;55.03;25.87;;;;;;;4.69;100.00;103084.28;5113670;28;20278;-76
2022/01/23 08:11:44;;;;;;;56.63;24.43;;;;;;;4.65;100.00;103088.53;5113794;28;20181;-75
2022/01/23 08:14:10;;;;;;;61.67;25.03;;;;;;;4.67;100.00;103091.16;5113850;28;20189;-75
2022/01/23 08:16:37;;;;;;;54.67;25.53;;;;;;;4.67;100.00;103086.84;5113739;28;20184;-75
2022/01/23 08:19:04;;;;;;;68.70;29.40;;;;;;;4.68;100.00;103093.78;5095831;28;20199;-75
2022/01/23 08:21:30;;;;;;;61.27;27.30;;;;;;;4.68;100.00;103092.91;5113639;28;20197;-75
2022/01/23 08:23:56;;;;;;;60.00;28.37;;;;;;;4.66;100.00;103100.66;5113723;28;20197;-75
2022/01/23 08:26:23;;;;;;;58.27;27.87;;;;;;;4.66;100.00;103098.09;5095510;28;20197;-75
2022/01/23 08:28:50;;;;;;;52.20;26.60;;;;;;;4.65;100.00;103098.06;5113609;28;20234;-75
2022/01/23 08:31:16;;;;;;;62.87;27.50;;;;;;;4.69;100.00;103105.03;5095367;28;20723;-77
2022/01/23 08:33:43;;;;;;;53.77;26.63;;;;;;;4.72;100.00;103104.25;5095388;28;20231;-75
2022/01/23 08:36:10;;;;;;;53.27;25.10;;;;;;;4.73;100.00;103103.41;5095682;28;20587;-75
2022/01/23 08:38:36;;;;;;;51.80;25.70;;;;;;;4.72;100.00;103109.44;5113557;28;20255;-74
2022/01/23 08:43:48;;;;;;;61.03;26.20;;;;;;;4.69;100.00;103116.28;5113818;28;20611;-75
2022/01/23 08:46:16;;;;;;;57.13;25.90;;;;;;;4.71;100.00;103124.09;5113860;28;20173;-75
2022/01/23 08:48:44;;;;;;;56.77;26.10;;;;;;;4.75;100.00;103120.75;5116267;28;20694;-75
2022/01/23 08:51:11;;;;;;;56.70;25.10;;;;;;;4.78;100.00;103131.19;5118198;28;20185;-75
2022/01/23 08:53:38;;;;;;;61.40;27.63;;;;;;;4.80;100.00;103123.44;5117798;28;20201;-75
2022/01/23 08:56:05;;;;;;;67.70;27.83;;;;;;;4.79;100.00;103126.91;5082498;28;20557;-75
2022/01/23 08:58:32;;;;;;;63.13;28.13;;;;;;;4.82;100.00;103124.34;5117432;28;20209;-75
2022/01/23 09:00:58;;;;;;;67.43;28.07;;;;;;;4.81;100.00;103126.06;5117476;28;20193;-75
2022/01/23 09:03:25;;;;;;;58.87;25.33;;;;;;;4.82;100.00;103120.03;5117406;28;20184;-76
2022/01/23 09:05:51;;;;;;;55.23;25.37;;;;;;;4.80;100.00;103115.66;5117258;28;20271;-75
2022/01/23 09:08:19;;;;;;;60.77;26.50;;;;;;;4.84;100.00;103122.66;5117523;28;20519;-75
2022/01/23 09:10:54;;;;;;;64.27;27.03;;;;;;;4.89;100.00;103128.81;5099487;28;20234;-75
2022/01/23 09:16:06;;;;;;;65.87;28.63;;;;;;;4.97;100.00;103116.88;5117431;28;20181;-75
2022/01/23 09:18:34;;;;;;;62.63;26.87;;;;;;;4.89;100.00;103118.44;5117007;28;20208;-76
2022/01/23 09:21:00;;;;;;;64.50;27.50;;;;;;;4.97;100.00;103116.88;5116903;28;20732;-75
2022/01/23 09:23:27;;;;;;;63.83;27.50;;;;;;;4.92;100.00;103123.69;5116981;28;20588;-75
2022/01/23 09:25:56;;;;;;;77.73;28.23;;;;;;;4.92;100.00;103124.56;5116917;28;20186;-75
2022/01/23 09:28:30;;;;;;;67.87;28.00;;;;;;;4.91;100.00;103127.13;5117074;28;20217;-75
2022/01/23 09:30:58;;;;;;;66.17;27.90;;;;;;;4.89;100.00;103128.81;5116835;28;20227;-74
2022/01/23 09:33:25;;;;;;;66.53;27.60;;;;;;;4.85;100.00;103127.00;5099234;28;20285;-75
2022/01/23 09:35:51;;;;;;;65.67;26.87;;;;;;;4.87;100.00;103125.34;5117044;28;20226;-76
2022/01/23 09:38:18;;;;;;;70.03;27.53;;;;;;;4.85;100.00;103121.81;5116586;28;20243;-75
2022/01/23 09:40:48;;;;;;;74.53;28.10;;;;;;;4.93;100.00;103126.34;5116948;28;20173;-76
2022/01/23 09:43:20;;;;;;;78.10;28.30;;;;;;;4.90;100.00;103122.78;5116848;28;20185;-75
2022/01/23 09:45:49;;;;;;;77.40;27.37;;;;;;;4.88;100.00;103129.69;5098481;28;20169;-75
2022/01/23 09:48:17;;;;;;;75.30;28.70;;;;;;;4.95;100.00;103126.38;5116381;28;20271;-75
2022/01/23 09:50:47;;;;;;;75.20;29.10;;;;;;;5.00;100.00;103129.94;5117335;28;20568;-75
2022/01/23 09:53:14;;;;;;;72.53;27.70;;;;;;;4.90;100.00;103128.84;5116345;28;20213;-75
2022/01/23 09:55:45;;;;;;;70.33;27.00;;;;;;;4.94;100.00;103137.59;5116984;28;20226;-75
2022/01/23 09:58:14;;;;;;;63.83;25.73;;;;;;;4.84;100.00;103141.69;5115887;28;20618;-75
2022/01/23 10:00:41;;;;;;;68.17;28.50;;;;;;;4.80;100.00;103139.03;5116242;28;20181;-75
2022/01/23 10:03:08;;;;;;;76.57;26.87;;;;;;;4.79;100.00;103135.56;5116237;28;20174;-75
2022/01/23 10:05:37;;;;;;;70.33;25.93;;;;;;;4.87;100.00;103146.97;5116128;28;20238;-75
2022/01/23 10:08:07;;;;;;;74.57;26.00;;;;;;;4.87;100.00;103149.56;5097790;28;20270;-75
2022/01/23 10:10:38;;;;;;;74.10;26.63;;;;;;;4.93;100.00;103139.31;5116333;28;20186;-76
2022/01/23 10:13:07;;;;;;;72.60;26.83;;;;;;;4.83;100.00;103139.94;5116249;28;20212;-75
2022/01/23 10:15:33;;;;;;;73.50;26.63;;;;;;;4.86;100.00;103140.03;5115936;28;20197;-75
2022/01/23 10:18:01;;;;;;;61.20;24.07;;;;;;;4.92;100.00;103144.44;5097878;28;20776;-75
2022/01/23 10:20:28;;;;;;;62.27;25.10;;;;;;;4.89;100.00;103141.81;5115726;28;20197;-76
2022/01/23 10:22:57;;;;;;;76.90;26.33;;;;;;;4.94;100.00;103150.56;5115939;28;20181;-75
2022/01/23 10:25:28;;;;;;;62.07;24.37;;;;;;;5.00;100.00;103150.72;5116015;28;20189;-75
2022/01/23 10:28:08;;;;;;;72.33;26.40;;;;;;;5.01;100.00;103152.47;5116294;28;20254;-75
2022/01/23 10:30:41;;;;;;;65.00;26.00;;;;;;;5.04;100.00;103146.44;5115998;28;20222;-75
2022/01/23 10:33:11;;;;;;;62.50;24.87;;;;;;;5.07;100.00;103155.19;5097371;28;20616;-75
2022/01/23 10:35:58;;;;;;;76.20;26.67;;;;;;;5.16;100.00;103150.19;5116474;28;20174;-75
2022/01/23 10:38:32;;;;;;;55.03;24.47;;;;;;;5.17;100.00;103149.31;5098754;28;20269;-75
2022/01/23 10:41:14;;;;;;;58.73;26.13;;;;;;;5.24;100.00;103145.13;5116017;28;20199;-75
2022/01/23 10:49:12;;;;;;;48.87;22.17;;;;;;;5.31;100.00;103143.53;5115307;28;20223;-75
2022/01/23 10:51:39;;;;;;;46.57;21.60;;;;;;;5.37;100.00;103141.06;5115271;28;20227;-75
2022/01/23 10:54:17;;;;;;;52.00;21.97;;;;;;;5.43;100.00;103143.75;5115698;28;20266;-75
2022/01/23 10:56:53;;;;;;;42.10;20.47;;;;;;;5.45;100.00;103136.88;5115912;28;20185;-75
2022/01/23 10:59:20;;;;;;;49.77;22.00;;;;;;;5.47;100.00;103124.78;5115088;28;20526;-75
2022/01/23 11:01:58;;;;;;;42.87;20.70;;;;;;;5.56;100.00;103126.66;5115007;28;20224;-75
2022/01/23 11:04:25;;;;;;;41.23;19.07;;;;;;;5.51;100.00;103130.09;5115527;28;20238;-75
2022/01/23 11:07:04;;;;;;;51.43;20.83;;;;;;;5.59;100.00;103132.81;5115481;28;20212;-75
2022/01/23 11:09:38;;;;;;;39.13;20.20;;;;;;;5.58;100.00;103130.19;5115073;28;20177;-75
2022/01/23 11:12:14;;;;;;;52.83;22.73;;;;;;;5.63;100.00;103129.41;5114602;28;20177;-75
2022/01/23 11:17:26;;;;;;;59.03;22.47;;;;;;;5.72;99.86;103134.78;5114991;28;20213;-75
2022/01/23 11:19:59;;;;;;;49.40;22.07;;;;;;;5.72;99.63;103129.59;5114447;28;20237;-75
2022/01/23 11:22:32;;;;;;;53.07;22.23;;;;;;;5.65;99.59;103124.25;5114966;28;20203;-75
2022/01/23 11:25:04;;;;;;;42.03;19.37;;;;;;;5.70;99.58;103122.59;5114931;28;20627;-75
2022/01/23 11:27:35;;;;;;;43.50;20.53;;;;;;;5.76;99.79;103120.97;5115056;28;20213;-75
2022/01/23 11:30:05;;;;;;;46.27;20.07;;;;;;;5.84;99.69;103117.63;5114835;28;20532;-75
2022/01/23 11:32:37;;;;;;;44.47;20.33;;;;;;;5.88;99.45;103099.53;5115253;28;20234;-75
2022/01/23 11:35:12;;;;;;;42.87;21.40;;;;;;;5.85;98.71;103101.19;5114561;28;20170;-75
2022/01/23 11:37:47;;;;;;;45.73;20.47;;;;;;;5.87;98.76;103102.13;5114437;28;20608;-75
2022/01/23 11:50:40;;;;;;;45.83;20.70;;;;;;;5.97;98.11;103104.03;5114951;28;20230;-75
2022/01/23 11:54:47;;;;;;;33.60;18.77;;;;;;;6.03;97.26;103101.53;5114082;28;20261;-77
2022/01/23 11:57:36;;;;;;;44.67;19.83;;;;;;;6.06;96.81;103099.84;5114323;28;20690;-75
2022/01/23 12:00:24;;;;;;;43.83;20.37;;;;;;;6.10;96.63;103102.50;5114316;28;20161;-75
2022/01/23 12:03:17;;;;;;;43.30;20.47;;;;;;;6.10;96.81;103098.19;5114580;28;20552;-75
2022/01/23 12:06:07;;;;;;;45.80;20.53;;;;;;;6.20;96.85;103102.66;5114187;28;20264;-75
2022/01/23 12:08:35;;;;;;;38.80;20.20;;;;;;;6.24;96.57;103101.88;5113727;28;20205;-75
2022/01/23 12:11:38;;;;;;;37.83;19.63;;;;;;;6.26;96.44;103094.09;5113970;28;20735;-75
2022/01/23 12:17:03;;;;;;;40.37;19.90;;;;;;;6.29;96.71;103096.75;5113973;28;20212;-74
2022/01/23 12:19:40;;;;;;;44.00;20.43;;;;;;;6.30;96.75;103083.75;5113926;28;20242;-74
2022/01/23 12:22:40;;;;;;;45.43;21.60;;;;;;;6.35;95.94;103086.41;5114000;28;20169;-75
2022/01/23 12:25:11;;;;;;;38.83;20.10;;;;;;;6.37;95.17;103081.25;5114006;28;20531;-75
2022/01/23 12:27:38;;;;;;;41.83;20.00;;;;;;;6.30;95.02;103086.34;5113905;28;20208;-75
2022/01/23 12:30:23;;;;;;;44.33;21.23;;;;;;;6.37;94.86;103081.25;5113647;28;20238;-75
2022/01/23 12:33:09;;;;;;;48.10;22.40;;;;;;;6.38;94.00;103080.38;5095345;28;20200;-75
2022/01/23 12:35:45;;;;;;;43.90;21.87;;;;;;;6.41;93.91;103067.41;5095456;28;20185;-75
2022/01/23 12:38:14;;;;;;;50.97;23.10;;;;;;;6.39;93.07;103076.94;5113505;28;20208;-75
2022/01/23 12:40:47;;;;;;;50.13;22.33;;;;;;;6.35;92.71;103073.38;5113588;28;20208;-75
2022/01/23 12:43:21;;;;;;;45.77;22.70;;;;;;;6.46;92.11;103073.56;5113799;28;20213;-75
2022/01/23 12:45:52;;;;;;;48.77;21.40;;;;;;;6.38;91.83;103062.16;5095249;28;20173;-75
2022/01/23 12:48:25;;;;;;;44.67;22.27;;;;;;;6.34;92.01;103066.44;5095248;28;20212;-77
2022/01/23 12:50:55;;;;;;;39.53;20.57;;;;;;;6.42;92.38;103067.41;5114063;28;20169;-77
2022/01/23 12:53:22;;;;;;;43.50;21.00;;;;;;;6.49;91.81;103060.56;5113917;28;20249;-78
2022/01/23 12:56:03;;;;;;;43.00;21.63;;;;;;;6.40;91.75;103070.88;5113443;28;20712;-76
2022/01/23 12:58:32;;;;;;;40.67;20.77;;;;;;;6.35;91.71;103070.78;5113612;28;20205;-77
2022/01/23 13:01:01;;;;;;;46.70;20.07;;;;;;;6.40;91.87;103063.94;5113927;28;20193;-77
2022/01/23 13:03:28;;;;;;;41.67;21.60;;;;;;;6.41;91.27;103064.81;5113364;28;20246;-76
2022/01/23 13:05:56;;;;;;;45.07;20.40;;;;;;;6.40;91.57;103063.94;5113330;28;20193;-76
2022/01/23 13:08:28;;;;;;;35.90;18.93;;;;;;;6.50;91.05;103062.31;5113328;28;20205;-76
2022/01/23 13:13:49;;;;;;;44.67;20.23;;;;;;;6.43;90.34;103053.59;5113463;28;20197;-76
2022/01/23 13:16:24;;;;;;;39.27;21.07;;;;;;;6.39;90.59;103053.50;5113142;28;20173;-76
2022/01/23 13:28:30;;;;;;;30.47;17.17;;;;;;;6.43;89.91;103061.38;5113083;28;20209;-75
2022/01/23 13:30:35;;;;;;;38.37;19.03;;;;;;;6.42;89.65;103053.53;5113170;28;20204;-77
2022/01/23 13:33:08;;;;;;;38.17;20.67;;;;;;;6.35;89.75;103053.44;5113891;28;20612;-77
2022/01/23 13:35:39;;;;;;;42.53;21.40;;;;;;;6.31;90.08;103056.00;5116759;28;20195;-76
2022/01/23 13:38:15;;;;;;;38.30;20.70;;;;;;;6.29;90.54;103063.78;5116838;28;20208;-75
2022/01/23 13:40:43;;;;;;;42.37;20.53;;;;;;;6.28;90.54;103061.16;5116734;28;20261;-76
2022/01/23 14:00:13;;;;;;;31.40;17.37;;;;;;;6.14;90.88;103058.34;5116898;28;20165;-75
2022/01/23 14:02:18;;;;;;;32.77;18.47;;;;;;;6.06;90.76;103063.44;5105342;28;20279;-76
2022/01/23 14:04:54;;;;;;;34.77;17.10;;;;;;;6.01;91.09;103066.84;5116823;28;20167;-76
2022/01/23 14:07:25;;;;;;;32.53;17.03;;;;;;;6.05;91.29;103068.63;5116343;28;20205;-75
2022/01/23 14:09:54;;;;;;;33.23;17.50;;;;;;;6.03;91.43;103066.00;5116113;28;20196;-77
2022/01/23 14:12:21;;;;;;;25.37;16.27;;;;;;;6.04;91.64;103056.47;5116595;28;20185;-76
2022/01/23 14:15:17;;;;;;;31.40;17.70;;;;;;;6.08;91.55;103053.09;5115966;28;20594;-76
2022/01/23 14:18:05;;;;;;;39.83;18.67;;;;;;;6.13;91.63;103054.00;5116059;28;20205;-75
2022/01/23 14:20:38;;;;;;;35.30;17.23;;;;;;;6.08;91.42;103058.28;5115947;28;20222;-75
2022/01/23 14:23:20;;;;;;;34.70;17.23;;;;;;;6.10;91.11;103048.78;5116351;28;20184;-75
2022/01/23 14:25:52;;;;;;;36.27;18.80;;;;;;;6.08;90.94;103042.69;5116146;28;20230;-75
2022/01/23 14:28:21;;;;;;;35.07;18.50;;;;;;;6.09;91.05;103048.75;5115595;28;20205;-75
2022/01/23 14:30:54;;;;;;;37.50;17.90;;;;;;;6.06;91.18;103042.63;5115939;28;20670;-75
2022/01/23 14:33:29;;;;;;;36.20;17.53;;;;;;;6.06;91.41;103041.75;5116183;28;20236;-75
2022/01/23 14:36:19;;;;;;;29.70;16.57;;;;;;;6.01;91.52;103044.31;5115652;28;20264;-75
2022/01/23 14:39:02;;;;;;;35.53;19.80;;;;;;;6.03;91.39;103047.78;5115495;28;20208;-75
2022/01/23 14:41:31;;;;;;;30.57;18.30;;;;;;;6.04;91.37;103040.88;5115665;28;20189;-75
2022/01/23 14:43:58;;;;;;;34.30;18.73;;;;;;;6.07;91.33;103044.41;5115724;28;20574;-75
2022/01/23 14:46:25;;;;;;;33.57;17.33;;;;;;;6.08;91.32;103042.69;5115478;28;20193;-75
2022/01/23 14:48:59;;;;;;;30.50;17.47;;;;;;;6.10;91.30;103043.56;5115377;28;20258;-75
2022/01/23 14:51:27;;;;;;;31.30;18.40;;;;;;;6.11;91.16;103034.91;5115621;28;20180;-75